Latest Weather Observations for Cape Sorell

IDT60801

Issued at 6:31 am EST Sunday 1 May 2016 (issued every 30 minutes, with the page automatically refreshed every 10 minutes)

About weather observations | Map of weather stations | Latest weather observations for TAS | Other Formats
Station Details ID: 097000 Name: CAPE SORELL Lat: -42.20 Lon: 145.17 Height: 19.3 m
Data from the previous 72 hours. | See also: Recent months at Cape Sorell
Date/Time
EST
Temp
°C
App
Temp
°C
Dew
Point
Rel
Hum
%
Delta-T
°C
Wind Press
QNH
hPa
Press
MSL
hPa
Rain
since 9 am
mm
Dir
 
Spd
km/h
Gust
km/h
Spd
kts
Gust
kts
01/06:30am 14.1 7.4 12.3 89 1.0 NE 39 44 21 24 995.9 995.9 10.4
01/06:00am 14.2 9.4 12.8 91 0.8 NE 30 41 16 22 996.4 996.4 10.2
01/05:30am 14.5 9.6 12.7 89 1.0 N 30 43 16 23 997.6 997.6 10.2
01/05:00am 14.5 8.9 13.4 93 0.6 NNE 35 43 19 23 998.4 998.4 9.8
01/04:30am 15.3 11.4 14.3 94 0.6 NNE 28 37 15 20 998.0 998.0 7.4
01/04:00am 14.8 7.4 13.0 89 1.0 N 44 65 24 35 998.5 998.5 5.8
01/03:58am 14.9 7.1 13.1 89 1.0 N 46 65 25 35 998.5 998.5 5.6
01/03:52am 15.1 8.6 13.0 87 1.2 NNW 39 65 21 35 998.5 998.5 4.8
01/03:50am 15.4 9.8 13.2 87 1.2 NNW 35 63 19 34 998.6 998.6 4.4
01/03:41am 16.4 11.8 14.6 89 1.0 NNE 32 43 17 23 998.6 998.6 3.6
01/03:30am 16.9 13.0 14.4 85 1.4 NNE 28 35 15 19 997.5 997.5 2.6
01/03:00am 16.6 11.8 14.1 85 1.4 NNE 32 39 17 21 998.6 998.6 2.4
01/02:38am 15.4 9.8 13.2 87 1.2 N 35 46 19 25 998.7 998.7 2.0
01/02:30am 15.6 11.3 12.2 80 1.9 NNW 26 43 14 23 999.6 999.6 1.6
01/02:26am 14.5 9.7 11.8 84 1.5 NNW 28 46 15 25 999.8 999.8 1.6
01/02:18am 17.2 10.4 14.3 83 1.7 N 43 57 23 31 1000.2 1000.2 0.4
01/02:07am 17.2 8.3 14.3 83 1.7 NNE 54 72 29 39 999.1 999.1 0.4
01/02:00am 17.6 8.0 13.9 79 2.1 NNE 57 72 31 39 998.4 998.4 0.0
01/01:55am 17.9 8.8 13.8 77 2.3 NNE 54 72 29 39 998.2 998.2 0.0
01/01:30am 18.1 11.0 13.4 74 2.7 NNE 43 52 23 28 999.1 999.1 0.0
01/01:00am 17.8 12.4 12.9 73 2.8 NNE 33 41 18 22 1000.1 1000.1 0.0
01/12:30am 17.3 12.6 12.0 71 2.9 NNE 28 33 15 18 1001.2 1001.2 0.0
01/12:00am 17.5 11.5 12.2 71 2.9 NNE 35 41 19 22 1002.0 1002.0 0.0
 
Date/Time
EST
Temp
°C
App
Temp
°C
Dew
Point
Rel
Hum
%
Delta-T
°C
Wind Press
QNH
hPa
Press
MSL
hPa
Rain
since 9 am
mm
Dir
 
Spd
km/h
Gust
km/h
Spd
kts
Gust
kts
30/11:30pm 17.4 11.9 12.3 72 2.8 NNE 33 39 18 21 1003.1 1003.1 0.0
30/11:00pm 17.4 11.5 12.5 73 2.7 NNE 35 43 19 23 1004.0 1004.0 0.0
30/10:30pm 17.4 10.3 12.3 72 2.8 NNE 41 50 22 27 1004.6 1004.6 0.0
30/10:00pm 17.1 10.9 12.6 75 2.5 NNE 37 43 20 23 1005.2 1005.2 0.0
30/09:30pm 16.9 11.6 13.0 78 2.2 NNE 33 37 18 20 1005.7 1005.7 0.0
30/09:00pm 17.1 10.7 13.2 78 2.2 N 39 48 21 26 1005.9 1005.9 0.0
30/08:30pm 17.1 11.1 13.4 79 2.1 N 37 44 20 24 1006.0 1006.0 0.0
30/08:00pm 17.1 11.9 13.4 79 2.1 N 33 41 18 22 1006.1 1006.1 0.0
30/07:30pm 17.1 12.6 12.6 75 2.5 N 28 35 15 19 1006.4 1006.4 0.0
30/07:00pm 17.1 12.0 13.8 81 1.9 N 33 37 18 20 1006.4 1006.4 0.0
30/06:30pm 17.1 12.5 13.4 79 2.1 NNW 30 43 16 23 1006.4 1006.4 0.0
30/06:00pm 17.1 12.1 14.0 82 1.8 NNW 33 44 18 24 1006.2 1006.2 0.0
30/05:30pm 17.2 12.5 14.3 83 1.7 NNW 32 43 17 23 1006.2 1006.2 0.0
30/05:00pm 17.4 12.5 13.7 79 2.1 NNW 32 44 17 24 1006.5 1006.5 0.0
30/04:30pm 17.7 12.9 14.0 79 2.1 NNW 32 44 17 24 1006.5 1006.5 0.0
30/04:00pm 17.9 12.3 13.4 75 2.6 NNW 35 50 19 27 1006.5 1006.5 0.0
30/03:30pm 17.9 12.6 13.0 73 2.7 NNW 33 44 18 24 1006.8 1006.8 0.0
30/03:00pm 18.3 12.9 12.7 70 3.1 NNW 33 46 18 25 1007.0 1007.0 0.0
30/02:30pm 18.6 12.8 12.8 69 3.3 NNW 35 48 19 26 1007.1 1007.1 0.0
30/02:00pm 18.5 11.2 12.7 69 3.3 NNW 43 54 23 29 1007.1 1007.1 0.0
30/01:30pm 18.6 11.2 12.4 67 3.5 N 43 50 23 27 1007.1 1007.1 0.0
30/01:00pm 18.2 12.2 13.3 73 2.8 NNW 37 44 20 24 1007.4 1007.4 0.0
30/12:30pm 19.0 12.6 13.2 69 3.3 N 39 46 21 25 1007.6 1007.6 0.0
30/12:00pm 18.8 12.9 13.6 72 3.0 N 37 46 20 25 1008.1 1008.1 0.0
30/11:30am 17.8 12.3 13.5 76 2.4 N 35 43 19 23 1008.6 1008.6 0.0
30/11:00am 18.3 11.6 13.4 73 2.8 N 41 50 22 27 1008.6 1008.6 0.0
30/10:30am 18.2 10.8 13.1 72 2.9 N 44 54 24 29 1008.9 1008.9 0.0
30/10:08am 17.9 12.3 13.2 74 2.6 N 35 54 19 29 1008.9 1008.9 0.0
30/10:00am 17.1 11.5 13.2 78 2.2 N 35 43 19 23 1009.2 1009.2 0.0
30/09:30am 17.2 11.5 13.1 77 2.3 NNE 35 44 19 24 1009.3 1009.3 0.0
30/09:00am 16.7 10.5 12.8 78 2.2 NNE 37 44 20 24 1009.5 1009.5 8.8
30/08:30am 15.8 8.6 12.0 78 2.1 NNE 41 46 22 25 1009.3 1009.3 8.8
30/08:00am 15.6 8.0 11.8 78 2.1 NNE 43 50 23 27 1009.1 1009.1 8.8
30/07:30am 15.5 7.9 11.7 78 2.1 NNE 43 50 23 27 1008.9 1008.9 8.8
30/07:00am 15.4 7.8 11.8 79 2.0 NNE 43 52 23 28 1008.7 1008.7 8.8
30/06:30am 15.3 8.1 11.9 80 1.8 NNE 41 46 22 25 1008.8 1008.8 8.8
30/06:00am 15.4 8.2 12.0 80 1.9 NNE 41 46 22 25 1008.9 1008.9 8.8
30/05:30am 15.3 8.9 12.1 81 1.7 NNE 37 43 20 23 1009.1 1009.1 8.8
30/05:00am 15.3 8.9 12.1 81 1.7 NNE 37 43 20 23 1009.0 1009.0 8.8
30/04:30am 15.4 10.2 12.7 84 1.5 NNE 32 37 17 20 1009.2 1009.2 8.8
30/04:00am 15.4 10.0 12.7 84 1.5 NNE 33 39 18 21 1009.2 1009.2 8.8
30/03:30am 16.1 9.1 12.5 79 2.0 N 41 50 22 27 1009.1 1009.1 8.8
30/03:00am 16.1 8.8 12.8 81 1.8 N 43 52 23 28 1009.2 1009.2 8.8
30/02:30am 16.0 9.9 12.9 82 1.7 N 37 46 20 25 1009.5 1009.5 8.8
30/02:00am 15.8 10.1 13.1 84 1.5 N 35 44 19 24 1009.7 1009.7 8.8
30/01:30am 15.8 9.9 13.5 86 1.3 N 37 46 20 25 1009.7 1009.7 8.8
30/01:00am 15.8 9.5 13.6 87 1.2 N 39 50 21 27 1009.8 1009.8 8.8
30/12:30am 16.0 10.1 13.5 85 1.4 N 37 44 20 24 1009.5 1009.5 8.8
30/12:00am 16.0 9.3 13.5 85 1.4 N 41 50 22 27 1009.6 1009.6 8.8
 
Date/Time
EST
Temp
°C
App
Temp
°C
Dew
Point
Rel
Hum
%
Delta-T
°C
Wind Press
QNH
hPa
Press
MSL
hPa
Rain
since 9 am
mm
Dir
 
Spd
km/h
Gust
km/h
Spd
kts
Gust
kts
29/11:30pm 16.0 10.1 13.7 86 1.3 N 37 44 20 24 1009.5 1009.5 8.8
29/11:00pm 16.0 10.6 13.8 87 1.2 N 35 43 19 23 1009.7 1009.7 8.8
29/10:30pm 16.0 10.6 13.8 87 1.2 N 35 43 19 23 1010.1 1010.1 8.8
29/10:00pm 15.8 10.8 14.0 89 1.0 N 33 44 18 24 1010.2 1010.2 8.8
29/09:30pm 16.3 11.4 13.8 85 1.4 NNW 32 41 17 22 1010.1 1010.1 8.4
29/09:00pm 16.1 11.2 13.8 86 1.3 NNW 32 50 17 27 1010.0 1010.0 8.4
29/08:30pm 16.0 10.2 14.0 88 1.1 NNW 37 50 20 27 1009.5 1009.5 8.4
29/08:00pm 16.0 11.1 14.2 89 1.0 NNW 33 50 18 27 1009.1 1009.1 8.4
29/07:52pm 16.0 11.7 14.5 91 0.9 NNW 30 50 16 27 1009.1 1009.1 8.4
29/07:30pm 16.2 10.8 14.0 87 1.2 NNW 35 48 19 26 1009.1 1009.1 8.4
29/07:00pm 16.3 11.7 14.5 89 1.0 NNW 32 43 17 23 1008.9 1008.9 8.4
29/06:30pm 16.0 10.7 14.2 89 1.0 N 35 48 19 26 1008.8 1008.8 8.4
29/06:00pm 16.2 10.4 14.9 92 0.8 NNW 39 50 21 27 1008.5 1008.5 8.4
29/05:30pm 15.9 10.3 14.4 91 0.9 NNW 37 50 20 27 1008.5 1008.5 8.2
29/05:00pm 16.0 11.3 14.9 93 0.6 NNW 33 46 18 25 1008.4 1008.4 8.2
29/04:30pm 16.0 9.3 14.7 92 0.7 NNW 43 59 23 32 1007.9 1007.9 8.2
29/04:00pm 15.9 9.3 14.8 93 0.6 N 43 52 23 28 1007.8 1007.8 7.6
29/03:30pm 15.9 10.8 14.9 94 0.6 N 35 43 19 23 1007.9 1007.9 6.8
29/03:00pm 15.7 10.9 14.7 94 0.6 NNW 33 43 18 23 1007.9 1007.9 5.8
29/02:30pm 16.0 10.1 14.7 92 0.7 N 39 50 21 27 1007.3 1007.3 2.4
29/02:00pm 16.1 9.4 14.6 91 0.9 N 43 52 23 28 1007.3 1007.3 1.6
29/01:30pm 16.6 9.2 14.2 86 1.4 N 46 57 25 31 1007.1 1007.1 0.8
29/01:00pm 17.3 10.1 13.6 79 2.1 N 44 56 24 30 1007.3 1007.3 0.6
29/12:30pm 17.8 10.6 13.7 77 2.3 N 44 56 24 30 1007.9 1007.9 0.6
29/12:00pm 17.7 11.1 13.8 78 2.2 N 41 54 22 29 1008.5 1008.5 0.6
29/11:30am 17.4 10.3 13.9 80 2.0 NNE 44 57 24 31 1009.0 1009.0 0.6
29/11:00am 17.5 10.3 13.6 78 2.2 NNE 44 54 24 29 1009.0 1009.0 0.4
29/10:30am 16.7 10.2 14.0 84 1.5 NNE 41 48 22 26 1009.6 1009.6 0.4
29/10:00am 16.9 10.3 13.6 81 1.9 NNE 41 52 22 28 1010.0 1010.0 0.2
29/09:30am 16.4 11.1 14.1 86 1.3 NNE 35 43 19 23 1010.5 1010.5 0.2
29/09:00am 16.0 10.2 14.0 88 1.1 NNE 37 46 20 25 1011.1 1011.1 4.6
29/08:31am 16.4 9.3 13.9 85 1.4 N 44 65 24 35 1011.3 1011.3 4.4
29/08:30am 16.4 9.0 14.1 86 1.3 N 46 65 25 35 1011.2 1011.2 4.4
29/08:00am 16.9 9.3 13.6 81 1.9 NNE 46 56 25 30 1010.7 1010.7 3.8
29/07:30am 16.5 9.8 13.4 82 1.7 NNE 41 50 22 27 1010.2 1010.2 3.8
29/07:00am 16.1 10.4 14.1 88 1.1 NNE 37 43 20 23 1010.7 1010.7 3.8
29/06:30am 15.8 10.1 14.3 91 0.9 NNE 37 43 20 23 1011.4 1011.4 3.8
29/06:00am 15.9 10.3 14.4 91 0.9 NNE 37 46 20 25 1012.0 1012.0 3.0
29/05:30am 16.0 11.1 14.4 90 0.9 NNE 33 41 18 22 1012.3 1012.3 2.0
29/05:00am 15.8 11.4 14.2 90 0.9 NNE 30 33 16 18 1012.3 1012.3 1.8
29/04:30am 13.9 11.0 13.0 94 0.5 ENE 20 24 11 13 1012.6 1012.6 1.4
29/04:00am 13.9 11.1 12.6 92 0.7 ENE 19 24 10 13 1012.5 1012.5 1.2
29/03:30am 14.3 12.0 13.0 92 0.7 ENE 17 20 9 11 1013.0 1013.0 1.2
29/03:00am 14.9 12.6 12.9 88 1.1 NNE 17 28 9 15 1013.8 1013.8 0.4
29/02:30am 13.4 12.6 11.8 90 0.9 NE 7 9 4 5 1014.3 1014.3 0.4
29/02:00am 13.3 10.8 11.2 87 1.1 ENE 15 17 8 9 1014.1 1014.1 0.2
29/01:30am 13.5 11.0 11.0 85 1.3 NE 15 19 8 10 1014.3 1014.3 0.2
29/01:00am 12.9 11.1 10.8 87 1.1 NE 11 15 6 8 1014.9 1014.9 0.2
29/12:30am 12.1 9.1 10.7 91 0.7 ENE 17 20 9 11 1015.0 1015.0 0.2
29/12:00am 11.8 8.8 10.7 93 0.6 E 17 19 9 10 1015.3 1015.3 0.2
 
Date/Time
EST
Temp
°C
App
Temp
°C
Dew
Point
Rel
Hum
%
Delta-T
°C
Wind Press
QNH
hPa
Press
MSL
hPa
Rain
since 9 am
mm
Dir
 
Spd
km/h
Gust
km/h
Spd
kts
Gust
kts
28/11:30pm 11.8 9.6 10.7 93 0.6 E 13 19 7 10 1015.4 1015.4 0.2
28/11:00pm 12.1 9.5 10.8 92 0.7 ESE 15 19 8 10 1015.9 1015.8 0.2
28/10:30pm 12.2 9.7 11.1 93 0.6 ESE 15 19 8 10 1016.4 1016.4 0.2
28/10:00pm 12.2 10.4 10.9 92 0.7 ESE 11 15 6 8 1016.7 1016.7 0.2
28/09:30pm 12.4 9.8 10.6 89 0.9 ESE 15 17 8 9 1016.7 1016.7 0.2
28/09:00pm 12.5 10.3 10.9 90 0.8 E 13 15 7 8 1016.9 1016.9 0.2
28/08:30pm 14.2 14.9 12.2 88 1.1 CALM 0 0 0 0 1017.0 1017.0 0.2
28/08:00pm 13.6 13.5 10.8 83 1.5 SE 2 6 1 3 1016.9 1016.9 0.2
28/07:30pm 14.4 14.8 11.2 81 1.7 CALM 0 0 0 0 1017.0 1017.0 0.2
28/07:00pm 14.5 14.9 11.1 80 1.8 CALM 0 0 0 0 1017.0 1017.0 0.2
28/06:30pm 14.8 15.2 11.4 80 1.8 CALM 0 0 0 0 1016.7 1016.7 0.2
28/06:00pm 14.5 14.7 10.7 78 2.0 CALM 0 2 0 1 1016.4 1016.4 0.2
28/05:30pm 14.5 14.7 10.7 78 2.0 CALM 0 2 0 1 1016.2 1016.1 0.2
28/05:00pm 15.2 15.5 11.0 76 2.2 CALM 0 0 0 0 1016.2 1016.1 0.2
28/04:30pm 15.8 15.9 11.4 75 2.4 N 2 4 1 2 1016.2 1016.1 0.2
28/04:00pm 16.3 15.9 11.2 72 2.7 N 4 6 2 3 1016.3 1016.2 0.2
28/03:30pm 17.3 16.7 11.8 70 3.0 NNW 6 7 3 4 1016.3 1016.2 0.2
28/03:00pm 17.8 17.3 12.0 69 3.2 NNW 6 9 3 5 1016.1 1016.0 0.2
28/02:30pm 17.3 16.3 12.2 72 2.8 N 9 11 5 6 1015.8 1015.7 0.2
28/02:00pm 17.0 15.9 11.9 72 2.8 N 9 11 5 6 1015.8 1015.7 0.2
28/01:30pm 17.5 16.7 12.8 74 2.6 N 9 13 5 7 1015.9 1015.8 0.2
28/01:00pm 17.4 16.4 12.3 72 2.8 N 9 11 5 6 1016.0 1015.9 0.2
28/12:30pm 17.8 17.3 12.5 71 2.9 NNW 7 11 4 6 1016.2 1016.1 0.2
28/12:00pm 16.8 16.6 12.9 78 2.2 N 6 7 3 4 1016.2 1016.1 0.0
28/11:30am 17.0 16.8 13.7 81 1.9 N 7 9 4 5 1016.2 1016.1 0.0
28/11:00am 17.1 17.3 13.0 77 2.3 N 4 6 2 3 1016.0 1015.9 0.0
28/10:30am 16.5 16.7 13.0 80 1.9 W 4 6 2 3 1015.9 1015.8 0.0
28/10:00am 16.0 16.3 13.5 85 1.4 WSW 4 6 2 3 1015.9 1015.8 0.0
28/09:30am 15.3 15.0 13.3 88 1.1 WSW 7 9 4 5 1015.6 1015.6 0.0
28/09:00am 14.8 14.7 13.2 90 0.9 WNW 6 7 3 4 1015.5 1015.5 5.6
28/08:30am 14.4 14.0 13.0 91 0.8 W 7 13 4 7 1015.2 1015.2 5.6
28/08:00am 14.3 12.8 13.0 92 0.7 WSW 13 15 7 8 1014.6 1014.6 5.6
28/07:30am 13.7 12.0 12.6 93 0.6 W 13 19 7 10 1014.1 1014.1 5.6
28/07:00am 14.1 11.8 13.1 94 0.6 WSW 17 22 9 12 1013.8 1013.8 5.2

Other Formats:

Comma delimited format used in spreadsheet applications
http://www.bom.gov.au/fwo/IDT60801/IDT60801.94974.axf

JavaScript Object Notation format (JSON) in row-major order
http://www.bom.gov.au/fwo/IDT60801/IDT60801.94974.json